Time;durP1;ratioP1;P1;durP2;ratioP2;P2;SDS_P1;SDS_P2;PMS_P1;PMS_P2;Temp;Humidity;BMP_temperature;BMP_pressure;BME280_temperature;BME280_humidity;BME280_pressure;Samples;Min_cycle;Max_cycle;Signal;HPM_P1;HPM_P2
2022/09/26 00:01:17;;;;;;;13.27;12.37;;;;;;;;;;5052400;28;24786;-46
2022/09/26 00:03:43;;;;;;;14.00;13.00;;;;;;;;;;5048769;28;24406;-46
2022/09/26 00:06:09;;;;;;;13.63;12.65;;;;;;;;;;5061337;28;24427;-47
2022/09/26 00:08:35;;;;;;;14.60;13.50;;;;;;;;;;5067452;28;24774;-45
2022/09/26 00:11:02;;;;;;;12.57;11.68;;;;;;;;;;5064742;28;24430;-46
2022/09/26 00:13:28;;;;;;;11.50;10.70;;;;;;;;;;5056569;28;24984;-46
2022/09/26 00:15:53;;;;;;;12.30;11.40;;;;;;;;;;5062055;28;24556;-46
2022/09/26 00:18:18;;;;;;;12.10;11.20;;;;;;;;;;5065555;28;24597;-47
2022/09/26 00:20:43;;;;;;;11.98;11.07;;;;;;;;;;5054976;28;25304;-46
2022/09/26 00:23:09;;;;;;;12.10;11.20;;;;;;;;;;5064911;28;24501;-46
2022/09/26 00:25:34;;;;;;;11.30;10.50;;;;;;;;;;5065195;28;24957;-47
2022/09/26 00:27:59;;;;;;;11.38;10.50;;;;;;;;;;5051616;28;24496;-47
2022/09/26 00:30:24;;;;;;;12.00;11.10;;;;;;;;;;5064319;28;24446;-47
2022/09/26 00:32:49;;;;;;;13.40;12.40;;;;;;;;;;5066068;28;24464;-47
2022/09/26 00:35:14;;;;;;;11.90;11.00;;;;;;;;;;5065215;28;24438;-47
2022/09/26 00:37:39;;;;;;;12.67;11.67;;;;;;;;;;5059664;28;25299;-47
2022/09/26 00:40:05;;;;;;;12.32;11.43;;;;;;;;;;5065198;28;24484;-46
2022/09/26 00:42:30;;;;;;;11.97;11.07;;;;;;;;;;5063684;28;24457;-46
2022/09/26 00:44:55;;;;;;;12.02;11.13;;;;;;;;;;5064150;28;24956;-45
2022/09/26 00:47:21;;;;;;;12.77;11.77;;;;;;;;;;5062722;28;24423;-46
2022/09/26 00:49:47;;;;;;;13.20;12.10;;;;;;;;;;5064860;28;24443;-47
2022/09/26 00:52:24;;;;;;;12.50;11.50;;;;;;;;;;5066062;28;24434;-46
2022/09/26 00:54:50;;;;;;;13.95;12.75;;;;;;;;;;5051992;28;24415;-47
2022/09/26 00:57:19;;;;;;;12.77;11.70;;;;;;;;;;5061212;28;24430;-47
2022/09/26 00:59:47;;;;;;;13.95;12.75;;;;;;;;;;5052250;28;24425;-46
2022/09/26 01:02:13;;;;;;;15.15;13.90;;;;;;;;;;5059882;28;25369;-46
2022/09/26 01:04:40;;;;;;;13.27;12.17;;;;;;;;;;5065358;28;25073;-46
2022/09/26 01:07:07;;;;;;;13.30;12.20;;;;;;;;;;5056461;28;24437;-45
2022/09/26 01:09:32;;;;;;;14.90;13.70;;;;;;;;;;5064197;28;24422;-46
2022/09/26 01:11:59;;;;;;;14.13;13.02;;;;;;;;;;5064202;28;24518;-46
2022/09/26 01:14:24;;;;;;;14.13;12.93;;;;;;;;;;5055626;28;24519;-47
2022/09/26 01:16:52;;;;;;;15.48;14.20;;;;;;;;;;5064385;28;24501;-47
2022/09/26 01:19:23;;;;;;;15.85;14.45;;;;;;;;;;5062613;28;24517;-47
2022/09/26 01:21:59;;;;;;;13.60;12.52;;;;;;;;;;5060778;28;24786;-45
2022/09/26 01:24:37;;;;;;;14.63;13.43;;;;;;;;;;5060374;28;24415;-46
2022/09/26 01:27:14;;;;;;;14.70;13.50;;;;;;;;;;5061918;28;24495;-46
2022/09/26 01:29:57;;;;;;;14.93;13.73;;;;;;;;;;5064368;28;24573;-47
2022/09/26 01:32:49;;;;;;;18.33;16.73;;;;;;;;;;5055261;28;24435;-47
2022/09/26 01:35:17;;;;;;;17.75;16.25;;;;;;;;;;5051525;28;24454;-47
2022/09/26 01:37:48;;;;;;;19.13;17.52;;;;;;;;;;5067494;28;24461;-47
2022/09/26 01:40:22;;;;;;;16.85;15.45;;;;;;;;;;5056440;28;24442;-47
2022/09/26 01:42:58;;;;;;;17.70;16.20;;;;;;;;;;5051703;28;24531;-47
2022/09/26 01:45:27;;;;;;;20.10;18.43;;;;;;;;;;5061419;28;24425;-46
2022/09/26 01:48:18;;;;;;;19.92;18.23;;;;;;;;;;5068192;28;24856;-46
2022/09/26 01:50:52;;;;;;;19.38;17.67;;;;;;;;;;5049291;28;24438;-46
2022/09/26 01:53:20;;;;;;;21.10;19.20;;;;;;;;;;5066928;28;24449;-46
2022/09/26 01:55:49;;;;;;;21.15;19.25;;;;;;;;;;5062932;28;25031;-47
2022/09/26 01:58:17;;;;;;;20.40;18.60;;;;;;;;;;5067475;28;24417;-47
2022/09/26 02:00:45;;;;;;;20.50;18.60;;;;;;;;;;5061408;28;24492;-47
2022/09/26 02:03:12;;;;;;;22.30;20.30;;;;;;;;;;5062334;28;24458;-46
2022/09/26 02:05:41;;;;;;;21.45;19.55;;;;;;;;;;5060185;28;24454;-46
2022/09/26 02:08:10;;;;;;;21.40;19.50;;;;;;;;;;5066178;28;24423;-46
2022/09/26 02:10:49;;;;;;;19.23;17.52;;;;;;;;;;5067195;28;24451;-46
2022/09/26 02:13:16;;;;;;;19.02;17.23;;;;;;;;;;5066953;28;24480;-46
2022/09/26 02:15:43;;;;;;;17.77;16.17;;;;;;;;;;5062470;28;25002;-46
2022/09/26 02:18:13;;;;;;;20.00;18.30;;;;;;;;;;5064345;28;24403;-47
2022/09/26 02:20:41;;;;;;;19.17;17.58;;;;;;;;;;5056410;28;24474;-46
2022/09/26 02:23:07;;;;;;;18.58;16.88;;;;;;;;;;5063115;28;24459;-46
2022/09/26 02:25:33;;;;;;;18.02;16.52;;;;;;;;;;5055488;28;24450;-47
2022/09/26 02:27:59;;;;;;;15.47;14.17;;;;;;;;;;5062830;28;24901;-46
2022/09/26 02:30:24;;;;;;;15.10;13.85;;;;;;;;;;5054461;28;24427;-46
2022/09/26 02:32:49;;;;;;;15.30;14.00;;;;;;;;;;5063091;28;24423;-47
2022/09/26 02:37:59;;;;;;;14.27;13.18;;;;;;;;;;5055157;28;24593;-47
2022/09/26 02:40:29;;;;;;;13.60;12.57;;;;;;;;;;5062626;28;24513;-47
2022/09/26 02:43:17;;;;;;;14.13;13.02;;;;;;;;;;5067983;28;24480;-47
2022/09/26 02:45:46;;;;;;;11.48;10.63;;;;;;;;;;5057650;28;25261;-46
2022/09/26 02:48:19;;;;;;;8.98;8.38;;;;;;;;;;5061137;28;24480;-47
2022/09/26 02:51:05;;;;;;;10.30;9.45;;;;;;;;;;5067670;28;25285;-47
2022/09/26 02:53:48;;;;;;;10.70;9.80;;;;;;;;;;5023042;28;24848;-48
2022/09/26 02:56:14;;;;;;;11.00;10.10;;;;;;;;;;5067012;28;24433;-47
2022/09/26 02:58:58;;;;;;;9.68;8.98;;;;;;;;;;5061450;28;24839;-49
2022/09/26 03:01:33;;;;;;;10.77;9.98;;;;;;;;;;5065654;28;24438;-47
2022/09/26 03:04:02;;;;;;;10.35;9.60;;;;;;;;;;5062150;28;24976;-47
2022/09/26 03:06:31;;;;;;;12.10;11.20;;;;;;;;;;5051431;28;24430;-48
2022/09/26 03:08:57;;;;;;;10.60;9.80;;;;;;;;;;5063260;28;24434;-48
2022/09/26 03:11:24;;;;;;;9.23;8.43;;;;;;;;;;5066159;28;24591;-47
2022/09/26 03:13:51;;;;;;;10.25;9.45;;;;;;;;;;5067005;28;24387;-47
2022/09/26 03:16:16;;;;;;;8.70;8.10;;;;;;;;;;5062038;28;24418;-48
2022/09/26 03:18:46;;;;;;;9.90;9.10;;;;;;;;;;5064369;28;24454;-47
2022/09/26 03:21:13;;;;;;;9.25;8.45;;;;;;;;;;5061605;28;24419;-48
2022/09/26 03:23:39;;;;;;;9.80;9.00;;;;;;;;;;5059923;28;24437;-47
2022/09/26 03:26:09;;;;;;;9.45;8.65;;;;;;;;;;5063163;28;24434;-47
2022/09/26 03:28:35;;;;;;;8.23;7.53;;;;;;;;;;5054247;28;24801;-47
2022/09/26 03:31:00;;;;;;;8.43;7.82;;;;;;;;;;5064495;28;24953;-47
2022/09/26 03:33:25;;;;;;;8.73;8.13;;;;;;;;;;5060889;28;24476;-47
2022/09/26 03:35:51;;;;;;;8.27;7.68;;;;;;;;;;5054606;28;24992;-46
2022/09/26 03:38:16;;;;;;;8.00;7.40;;;;;;;;;;5057758;28;24972;-47
2022/09/26 03:40:41;;;;;;;9.30;8.60;;;;;;;;;;5062229;28;24426;-47
2022/09/26 03:43:06;;;;;;;9.67;8.87;;;;;;;;;;5058213;28;24422;-47
2022/09/26 03:45:35;;;;;;;9.37;8.57;;;;;;;;;;5047261;28;24424;-47
2022/09/26 03:48:00;;;;;;;9.57;8.77;;;;;;;;;;5061060;28;24414;-47
2022/09/26 03:50:25;;;;;;;9.40;8.70;;;;;;;;;;5056790;28;24441;-48
2022/09/26 03:52:51;;;;;;;10.57;9.63;;;;;;;;;;5048856;28;24467;-48
2022/09/26 03:55:16;;;;;;;9.53;8.80;;;;;;;;;;5059415;28;25003;-47
2022/09/26 03:57:41;;;;;;;8.65;7.95;;;;;;;;;;5064066;28;24426;-47
2022/09/26 04:00:06;;;;;;;9.30;8.60;;;;;;;;;;5059098;28;24445;-47
2022/09/26 04:02:32;;;;;;;8.90;8.30;;;;;;;;;;5058528;28;24431;-47
2022/09/26 04:04:57;;;;;;;7.53;6.93;;;;;;;;;;5056332;28;24684;-47
2022/09/26 04:07:22;;;;;;;8.37;7.67;;;;;;;;;;5052173;28;24926;-47
2022/09/26 04:09:47;;;;;;;8.00;7.40;;;;;;;;;;5063529;28;24426;-47
2022/09/26 04:12:13;;;;;;;8.07;7.47;;;;;;;;;;5057149;28;25015;-47
2022/09/26 04:14:38;;;;;;;8.93;8.23;;;;;;;;;;5056409;28;24442;-48
2022/09/26 04:17:03;;;;;;;8.65;7.95;;;;;;;;;;5056526;28;24511;-48
2022/09/26 04:19:28;;;;;;;9.52;8.82;;;;;;;;;;5059695;28;24984;-48
2022/09/26 04:21:54;;;;;;;8.20;7.67;;;;;;;;;;5057134;28;24429;-48
2022/09/26 04:24:20;;;;;;;8.30;7.70;;;;;;;;;;5052378;28;25283;-49
2022/09/26 04:26:45;;;;;;;8.65;8.02;;;;;;;;;;5061740;28;24773;-49
2022/09/26 04:29:10;;;;;;;9.20;8.40;;;;;;;;;;5063345;28;24496;-49
2022/09/26 04:31:36;;;;;;;9.03;8.43;;;;;;;;;;5058064;28;24924;-48
2022/09/26 04:34:03;;;;;;;8.90;8.13;;;;;;;;;;5056144;28;25182;-49
2022/09/26 04:36:28;;;;;;;8.97;8.27;;;;;;;;;;5057090;28;24531;-48
2022/09/26 04:38:58;;;;;;;9.27;8.60;;;;;;;;;;5049665;28;24521;-49
2022/09/26 04:41:23;;;;;;;8.10;7.40;;;;;;;;;;5055829;28;24423;-45
2022/09/26 04:43:49;;;;;;;8.17;7.47;;;;;;;;;;5051449;28;24838;-46
2022/09/26 04:46:15;;;;;;;8.00;7.40;;;;;;;;;;5057829;28;24495;-44
2022/09/26 04:48:41;;;;;;;8.05;7.45;;;;;;;;;;5050407;28;24423;-45
2022/09/26 04:51:07;;;;;;;7.88;7.28;;;;;;;;;;5047818;28;25105;-44
2022/09/26 04:53:32;;;;;;;7.72;7.13;;;;;;;;;;5052669;28;24433;-45
2022/09/26 04:55:58;;;;;;;8.13;7.53;;;;;;;;;;5051131;28;24949;-47
2022/09/26 04:58:23;;;;;;;8.20;7.50;;;;;;;;;;5052911;28;24781;-47
2022/09/26 05:00:48;;;;;;;7.97;7.37;;;;;;;;;;5051707;28;24521;-47
2022/09/26 05:03:14;;;;;;;7.70;7.10;;;;;;;;;;5057509;28;24407;-47
2022/09/26 05:05:40;;;;;;;8.07;7.47;;;;;;;;;;5050736;28;24517;-47
2022/09/26 05:08:05;;;;;;;8.30;7.60;;;;;;;;;;5054396;28;25670;-47
2022/09/26 05:10:30;;;;;;;8.65;8.05;;;;;;;;;;5062087;28;24828;-47
2022/09/26 05:12:57;;;;;;;9.15;8.35;;;;;;;;;;5052737;28;24805;-47
2022/09/26 05:15:22;;;;;;;8.95;8.35;;;;;;;;;;5055294;28;24527;-47
2022/09/26 05:17:54;;;;;;;9.73;8.93;;;;;;;;;;5047250;28;24422;-47
2022/09/26 05:20:19;;;;;;;9.20;8.40;;;;;;;;;;5048149;28;24852;-47
2022/09/26 05:22:45;;;;;;;8.60;8.00;;;;;;;;;;5061740;28;25010;-46
2022/09/26 05:27:54;;;;;;;9.07;8.38;;;;;;;;;;5050568;28;24959;-47
2022/09/26 05:30:19;;;;;;;10.10;9.30;;;;;;;;;;5065949;28;24522;-47
2022/09/26 05:32:47;;;;;;;10.27;9.47;;;;;;;;;;5063215;28;24816;-47
2022/09/26 05:35:12;;;;;;;10.40;9.60;;;;;;;;;;5061185;28;24431;-47
2022/09/26 05:37:37;;;;;;;11.23;10.33;;;;;;;;;;5053283;28;24472;-48
2022/09/26 05:42:46;;;;;;;9.90;9.10;;;;;;;;;;5064077;28;24378;-47
2022/09/26 05:45:12;;;;;;;9.20;8.50;;;;;;;;;;5057871;28;24415;-48
2022/09/26 05:47:38;;;;;;;9.20;8.50;;;;;;;;;;5052782;28;24421;-49
2022/09/26 05:50:08;;;;;;;8.50;7.90;;;;;;;;;;5066148;28;24430;-46
2022/09/26 05:52:33;;;;;;;9.80;9.10;;;;;;;;;;5055833;28;24504;-47
2022/09/26 05:54:58;;;;;;;7.80;7.30;;;;;;;;;;5055259;28;24478;-47
2022/09/26 05:57:24;;;;;;;8.27;7.68;;;;;;;;;;5047689;28;24467;-47
2022/09/26 05:59:49;;;;;;;8.57;8.07;;;;;;;;;;5049750;28;24438;-48
2022/09/26 06:02:14;;;;;;;8.32;7.72;;;;;;;;;;5061648;28;24418;-47
2022/09/26 06:04:39;;;;;;;8.30;7.70;;;;;;;;;;5063398;28;24856;-47
2022/09/26 06:07:04;;;;;;;8.50;7.90;;;;;;;;;;5065285;28;24555;-47
2022/09/26 06:09:30;;;;;;;8.87;8.27;;;;;;;;;;5063516;28;24588;-46
2022/09/26 06:11:55;;;;;;;7.50;7.00;;;;;;;;;;5051136;28;24819;-47
2022/09/26 06:14:23;;;;;;;8.48;7.88;;;;;;;;;;5058500;28;24423;-47
2022/09/26 06:16:48;;;;;;;9.20;8.60;;;;;;;;;;5064230;28;24567;-48
2022/09/26 06:19:13;;;;;;;8.18;7.47;;;;;;;;;;5042818;28;24498;-47
2022/09/26 06:21:39;;;;;;;8.75;8.15;;;;;;;;;;5048066;28;24457;-47
2022/09/26 06:24:04;;;;;;;9.57;8.77;;;;;;;;;;5069271;28;24923;-48
2022/09/26 06:26:29;;;;;;;8.40;7.70;;;;;;;;;;5067022;28;24514;-47
2022/09/26 06:28:59;;;;;;;8.88;8.27;;;;;;;;;;5064438;28;24434;-47
2022/09/26 06:31:25;;;;;;;8.40;7.80;;;;;;;;;;5056593;28;24770;-48
2022/09/26 06:33:54;;;;;;;8.30;7.70;;;;;;;;;;5060773;28;24585;-47
2022/09/26 06:36:20;;;;;;;7.90;7.30;;;;;;;;;;5055225;28;25394;-47
2022/09/26 06:38:45;;;;;;;6.93;6.43;;;;;;;;;;5057830;28;25033;-46
2022/09/26 06:41:15;;;;;;;7.70;7.07;;;;;;;;;;5064559;28;24431;-47
2022/09/26 06:43:40;;;;;;;7.93;7.32;;;;;;;;;;5049296;28;24501;-47
2022/09/26 06:46:08;;;;;;;7.20;6.70;;;;;;;;;;5047730;28;24956;-47
2022/09/26 06:48:33;;;;;;;8.32;7.72;;;;;;;;;;5063489;28;24819;-49
2022/09/26 06:50:59;;;;;;;7.05;6.55;;;;;;;;;;5068988;28;24402;-48
2022/09/26 06:53:24;;;;;;;7.27;6.77;;;;;;;;;;5068933;28;24448;-48
2022/09/26 06:55:49;;;;;;;7.40;6.80;;;;;;;;;;5068251;28;24437;-47
2022/09/26 06:58:14;;;;;;;7.80;7.30;;;;;;;;;;5069510;28;24750;-48
2022/09/26 07:00:39;;;;;;;7.53;7.03;;;;;;;;;;5064611;28;24427;-47
2022/09/26 07:03:05;;;;;;;8.33;7.73;;;;;;;;;;5065663;28;24578;-46
2022/09/26 07:05:30;;;;;;;6.80;6.30;;;;;;;;;;5069029;28;24409;-48
2022/09/26 07:07:56;;;;;;;6.60;6.10;;;;;;;;;;5069222;28;24813;-47
2022/09/26 07:10:23;;;;;;;6.60;6.10;;;;;;;;;;5068781;28;24480;-47
2022/09/26 07:12:48;;;;;;;6.40;6.00;;;;;;;;;;5061628;28;24418;-47
2022/09/26 07:15:15;;;;;;;6.03;5.63;;;;;;;;;;5068823;28;24402;-47
2022/09/26 07:17:40;;;;;;;6.75;6.25;;;;;;;;;;5068810;28;24387;-47
2022/09/26 07:20:08;;;;;;;6.83;6.33;;;;;;;;;;5068708;28;24766;-47
2022/09/26 07:22:33;;;;;;;7.43;6.82;;;;;;;;;;5068066;28;24452;-47
2022/09/26 07:24:58;;;;;;;8.40;7.70;;;;;;;;;;5067000;28;24414;-49
2022/09/26 07:27:24;;;;;;;7.75;7.15;;;;;;;;;;5068234;28;24405;-47
2022/09/26 07:29:49;;;;;;;8.60;7.90;;;;;;;;;;5065965;28;24483;-47
2022/09/26 07:32:14;;;;;;;7.50;6.90;;;;;;;;;;5056041;28;24419;-47
2022/09/26 07:34:40;;;;;;;7.93;7.32;;;;;;;;;;5068160;28;24415;-48
2022/09/26 07:37:06;;;;;;;7.03;6.50;;;;;;;;;;5068389;28;24456;-48
2022/09/26 07:39:31;;;;;;;8.40;7.80;;;;;;;;;;5068570;28;24467;-48
2022/09/26 07:41:57;;;;;;;9.60;8.90;;;;;;;;;;5064374;28;25103;-48
2022/09/26 07:44:22;;;;;;;9.90;9.10;;;;;;;;;;5067901;28;25043;-47
2022/09/26 07:52:16;;;;;;;10.17;9.37;;;;;;;;;;5066443;28;24556;-47
2022/09/26 07:54:41;;;;;;;8.40;7.80;;;;;;;;;;5067622;28;24737;-47
2022/09/26 07:57:06;;;;;;;8.33;7.73;;;;;;;;;;5068332;28;25656;-47
2022/09/26 07:59:35;;;;;;;9.13;8.43;;;;;;;;;;5068063;28;24391;-47
2022/09/26 08:02:01;;;;;;;9.43;8.63;;;;;;;;;;5067490;28;24432;-47
2022/09/26 08:04:27;;;;;;;7.25;6.65;;;;;;;;;;5064200;28;24431;-47
2022/09/26 08:06:52;;;;;;;9.07;8.37;;;;;;;;;;5067663;28;24430;-47
2022/09/26 08:09:17;;;;;;;7.78;7.15;;;;;;;;;;5067884;28;24472;-47
2022/09/26 08:11:43;;;;;;;7.70;7.10;;;;;;;;;;5067711;28;24765;-47
2022/09/26 08:14:08;;;;;;;9.17;8.37;;;;;;;;;;5067431;28;24475;-47
2022/09/26 08:16:38;;;;;;;8.00;7.33;;;;;;;;;;5065750;28;25038;-46
2022/09/26 08:19:03;;;;;;;8.35;7.68;;;;;;;;;;5067440;28;24407;-47
2022/09/26 08:21:28;;;;;;;8.00;7.40;;;;;;;;;;5067604;28;24585;-47
2022/09/26 08:23:54;;;;;;;8.40;7.80;;;;;;;;;;5067186;28;24414;-46
2022/09/26 08:26:22;;;;;;;8.15;7.47;;;;;;;;;;5065710;28;24430;-47
2022/09/26 08:28:47;;;;;;;8.48;7.88;;;;;;;;;;5067217;28;25283;-47
2022/09/26 08:31:13;;;;;;;8.60;7.90;;;;;;;;;;5066939;28;24486;-47
2022/09/26 08:33:38;;;;;;;8.57;7.87;;;;;;;;;;5062362;28;24407;-47
2022/09/26 08:36:04;;;;;;;8.30;7.70;;;;;;;;;;5066884;28;24537;-47
2022/09/26 08:38:29;;;;;;;8.60;7.90;;;;;;;;;;5067295;28;24378;-47
2022/09/26 08:41:05;;;;;;;8.75;8.05;;;;;;;;;;5067333;28;24394;-47
2022/09/26 08:43:33;;;;;;;9.70;9.00;;;;;;;;;;5065301;28;24415;-47
2022/09/26 08:48:50;;;;;;;8.27;7.57;;;;;;;;;;5067321;28;24398;-47
2022/09/26 08:51:33;;;;;;;9.40;8.70;;;;;;;;;;5067365;28;24390;-47
2022/09/26 08:54:01;;;;;;;8.25;7.55;;;;;;;;;;5066665;28;24639;-49
2022/09/26 08:56:29;;;;;;;7.30;6.80;;;;;;;;;;5065175;28;24418;-47
2022/09/26 08:58:55;;;;;;;7.85;7.15;;;;;;;;;;5066961;28;24394;-47
2022/09/26 09:01:28;;;;;;;6.85;6.35;;;;;;;;;;5066980;28;24487;-47
2022/09/26 09:04:06;;;;;;;7.50;6.80;;;;;;;;;;5066181;28;24464;-47
2022/09/26 09:06:31;;;;;;;6.90;6.40;;;;;;;;;;5064918;28;24972;-48
2022/09/26 09:08:57;;;;;;;7.80;7.20;;;;;;;;;;5066778;28;24474;-47
2022/09/26 09:11:25;;;;;;;7.93;7.30;;;;;;;;;;5066760;28;24500;-47
2022/09/26 09:13:59;;;;;;;7.10;6.50;;;;;;;;;;5066584;28;24974;-47
2022/09/26 09:16:43;;;;;;;7.80;7.23;;;;;;;;;;5064802;28;24399;-48
2022/09/26 09:19:25;;;;;;;7.03;6.53;;;;;;;;;;5063481;28;24442;-48
2022/09/26 09:22:14;;;;;;;7.18;6.68;;;;;;;;;;5066621;28;24976;-48
2022/09/26 09:24:54;;;;;;;8.68;7.97;;;;;;;;;;5046643;28;24461;-48
2022/09/26 09:27:23;;;;;;;7.50;7.00;;;;;;;;;;5046618;28;24511;-48
2022/09/26 09:30:00;;;;;;;7.88;7.18;;;;;;;;;;5046352;28;24968;-47
2022/09/26 09:32:27;;;;;;;6.70;6.20;;;;;;;;;;5046502;28;24926;-48
2022/09/26 09:34:53;;;;;;;7.85;7.22;;;;;;;;;;5045530;28;24541;-48
2022/09/26 09:37:20;;;;;;;7.40;6.90;;;;;;;;;;5046620;28;24914;-47
2022/09/26 09:39:46;;;;;;;7.05;6.40;;;;;;;;;;5046238;28;24955;-48
2022/09/26 09:42:17;;;;;;;5.03;4.70;;;;;;;;;;5061631;28;24538;-48
2022/09/26 09:44:47;;;;;;;4.35;4.05;;;;;;;;;;5066158;28;24466;-48
2022/09/26 09:47:17;;;;;;;2.88;2.67;;;;;;;;;;5066062;28;24406;-48
2022/09/26 09:49:43;;;;;;;3.30;3.00;;;;;;;;;;5066536;28;24488;-48
2022/09/26 09:52:24;;;;;;;2.88;2.22;;;;;;;;;;5064899;28;24426;-48
2022/09/26 09:54:58;;;;;;;2.40;2.20;;;;;;;;;;5066015;28;24465;-48
2022/09/26 09:57:23;;;;;;;2.03;1.90;;;;;;;;;;5070161;28;24935;-48
2022/09/26 09:59:48;;;;;;;1.80;1.70;;;;;;;;;;5070086;28;24496;-48
2022/09/26 10:02:17;;;;;;;1.90;1.80;;;;;;;;;;5068377;28;24425;-48
2022/09/26 10:04:45;;;;;;;2.35;2.10;;;;;;;;;;5069824;28;24468;-49
2022/09/26 10:07:10;;;;;;;2.20;1.80;;;;;;;;;;5069958;28;24430;-46
2022/09/26 10:09:37;;;;;;;2.20;2.00;;;;;;;;;;5069904;28;24457;-46
2022/09/26 10:12:07;;;;;;;2.65;1.90;;;;;;;;;;5067529;28;24477;-46
2022/09/26 10:14:36;;;;;;;2.25;2.05;;;;;;;;;;5069960;28;24429;-45
2022/09/26 10:17:10;;;;;;;2.10;1.90;;;;;;;;;;5069687;28;24927;-47
2022/09/26 10:19:36;;;;;;;1.90;1.80;;;;;;;;;;5069867;28;24793;-46
2022/09/26 10:22:02;;;;;;;2.63;1.90;;;;;;;;;;5068830;28;24427;-47
2022/09/26 10:24:37;;;;;;;1.73;1.63;;;;;;;;;;5069248;28;24417;-48
2022/09/26 10:27:13;;;;;;;2.90;1.90;;;;;;;;;;5069548;28;24395;-47
2022/09/26 10:29:39;;;;;;;1.80;1.70;;;;;;;;;;5069728;28;24472;-47
2022/09/26 10:32:04;;;;;;;3.03;2.10;;;;;;;;;;5067590;28;24436;-47
2022/09/26 10:34:31;;;;;;;2.00;1.90;;;;;;;;;;5069090;28;24391;-47
2022/09/26 10:36:56;;;;;;;2.10;1.90;;;;;;;;;;5069473;28;24413;-47
2022/09/26 10:42:18;;;;;;;2.10;1.70;;;;;;;;;;5067087;28;24846;-47
2022/09/26 10:44:45;;;;;;;1.80;1.70;;;;;;;;;;5069265;28;24768;-47
2022/09/26 10:47:15;;;;;;;4.20;2.40;;;;;;;;;;5069462;28;24799;-47
2022/09/26 10:49:50;;;;;;;2.95;2.20;;;;;;;;;;5050892;28;24437;-46
2022/09/26 10:52:15;;;;;;;1.80;1.70;;;;;;;;;;5048886;28;24453;-47
2022/09/26 10:54:44;;;;;;;2.10;2.00;;;;;;;;;;5049164;28;24400;-47
2022/09/26 10:57:18;;;;;;;2.30;2.10;;;;;;;;;;5048973;28;24387;-47
2022/09/26 10:59:44;;;;;;;2.50;2.30;;;;;;;;;;5049257;28;24395;-47
2022/09/26 11:02:14;;;;;;;1.95;1.85;;;;;;;;;;5048670;28;24444;-47
2022/09/26 11:07:32;;;;;;;1.90;1.80;;;;;;;;;;5047411;28;24418;-47
2022/09/26 11:10:00;;;;;;;1.70;1.60;;;;;;;;;;5049017;28;24421;-48
2022/09/26 11:12:27;;;;;;;1.43;1.30;;;;;;;;;;5048618;28;25014;-48
2022/09/26 11:14:55;;;;;;;1.40;1.30;;;;;;;;;;5049044;28;24474;-49
2022/09/26 11:17:20;;;;;;;1.90;1.50;;;;;;;;;;5048504;28;24917;-46
2022/09/26 11:19:57;;;;;;;1.70;1.50;;;;;;;;;;5048612;28;24418;-46
2022/09/26 11:22:55;;;;;;;2.28;1.50;;;;;;;;;;5066021;28;25079;-47
2022/09/26 11:25:26;;;;;;;1.42;1.30;;;;;;;;;;5034317;28;24850;-48
2022/09/26 11:28:14;;;;;;;2.30;1.60;;;;;;;;;;5068519;28;24401;-48
2022/09/26 11:30:47;;;;;;;1.40;1.25;;;;;;;;;;5058314;28;24484;-48
2022/09/26 11:33:12;;;;;;;1.70;1.60;;;;;;;;;;5067194;28;24380;-49
2022/09/26 11:35:58;;;;;;;1.30;1.20;;;;;;;;;;5067421;28;24450;-47
2022/09/26 11:38:37;;;;;;;1.58;1.48;;;;;;;;;;5068348;28;24417;-47
2022/09/26 11:41:35;;;;;;;1.30;1.20;;;;;;;;;;5068399;28;24453;-47
2022/09/26 11:44:19;;;;;;;1.08;1.00;;;;;;;;;;5067292;28;24488;-47
2022/09/26 11:47:02;;;;;;;1.60;1.10;;;;;;;;;;5068313;28;24414;-48
2022/09/26 11:49:41;;;;;;;1.20;1.00;;;;;;;;;;5068207;28;24820;-47
2022/09/26 11:52:29;;;;;;;0.90;0.90;;;;;;;;;;5068043;28;24414;-49
2022/09/26 11:55:18;;;;;;;1.70;1.30;;;;;;;;;;5058030;28;24434;-46
2022/09/26 11:57:47;;;;;;;1.40;1.30;;;;;;;;;;5058580;28;24438;-46
2022/09/26 12:00:26;;;;;;;1.17;1.07;;;;;;;;;;5066543;28;24513;-47
2022/09/26 12:03:10;;;;;;;1.10;1.00;;;;;;;;;;5066553;28;24960;-46
2022/09/26 12:05:43;;;;;;;1.30;1.20;;;;;;;;;;5067841;28;25128;-47
2022/09/26 12:08:18;;;;;;;1.20;1.10;;;;;;;;;;5067989;28;24414;-47
2022/09/26 12:10:43;;;;;;;1.50;1.40;;;;;;;;;;5067555;28;24976;-47
2022/09/26 12:13:31;;;;;;;1.73;1.40;;;;;;;;;;5067101;28;24433;-45
2022/09/26 12:15:56;;;;;;;1.30;1.20;;;;;;;;;;5067900;28;24476;-46
2022/09/26 12:18:42;;;;;;;1.43;1.33;;;;;;;;;;5067231;28;24941;-46
2022/09/26 12:21:23;;;;;;;1.40;1.30;;;;;;;;;;5067641;28;24402;-45
2022/09/26 12:23:51;;;;;;;1.40;1.30;;;;;;;;;;5066714;28;24425;-45
2022/09/26 12:26:38;;;;;;;1.30;1.20;;;;;;;;;;5062642;28;24427;-48
2022/09/26 12:29:24;;;;;;;1.30;1.20;;;;;;;;;;5057016;28;24436;-46
2022/09/26 12:32:13;;;;;;;1.30;1.20;;;;;;;;;;5054351;28;24447;-46
2022/09/26 12:34:38;;;;;;;1.30;1.20;;;;;;;;;;5053375;28;24437;-46
2022/09/26 12:37:22;;;;;;;1.38;1.27;;;;;;;;;;5047473;28;24460;-46
2022/09/26 12:39:50;;;;;;;1.10;1.00;;;;;;;;;;5047622;28;24457;-46
2022/09/26 12:42:25;;;;;;;1.30;1.20;;;;;;;;;;5060645;28;24460;-46
2022/09/26 12:45:08;;;;;;;1.35;1.00;;;;;;;;;;5053687;28;25091;-46
2022/09/26 12:47:52;;;;;;;1.42;1.33;;;;;;;;;;5055278;28;24480;-46
2022/09/26 12:50:23;;;;;;;1.70;1.40;;;;;;;;;;5060287;28;24524;-48
2022/09/26 12:53:00;;;;;;;1.20;1.10;;;;;;;;;;5067161;28;24480;-46
2022/09/26 12:55:44;;;;;;;1.30;1.20;;;;;;;;;;5058606;28;24839;-47
2022/09/26 12:58:15;;;;;;;1.35;0.90;;;;;;;;;;5050357;28;24433;-48
2022/09/26 13:00:55;;;;;;;1.48;1.00;;;;;;;;;;5065415;28;24395;-47
2022/09/26 13:03:44;;;;;;;1.33;0.90;;;;;;;;;;5066575;28;24382;-46
2022/09/26 13:06:22;;;;;;;0.93;0.90;;;;;;;;;;5066408;28;24805;-48
2022/09/26 13:08:59;;;;;;;0.80;0.80;;;;;;;;;;5048918;28;24538;-48
2022/09/26 13:11:43;;;;;;;1.10;0.80;;;;;;;;;;5046338;28;24817;-48
2022/09/26 13:14:27;;;;;;;1.00;0.80;;;;;;;;;;5046465;28;24399;-46
2022/09/26 13:17:09;;;;;;;0.70;0.70;;;;;;;;;;5047142;28;24491;-46
2022/09/26 13:19:36;;;;;;;1.13;1.00;;;;;;;;;;5046570;28;24402;-48
2022/09/26 13:22:03;;;;;;;1.52;1.15;;;;;;;;;;5046422;28;24933;-48
2022/09/26 13:24:33;;;;;;;1.02;0.93;;;;;;;;;;5046483;28;25011;-47
2022/09/26 13:27:11;;;;;;;0.85;0.85;;;;;;;;;;5046508;28;24729;-48
2022/09/26 13:29:36;;;;;;;0.90;0.80;;;;;;;;;;5057671;28;24437;-47
2022/09/26 13:32:17;;;;;;;1.10;0.80;;;;;;;;;;5055378;28;25257;-47
2022/09/26 13:34:46;;;;;;;0.80;0.80;;;;;;;;;;5054500;28;24501;-47
2022/09/26 13:37:19;;;;;;;0.90;0.73;;;;;;;;;;5070382;28;24417;-48
2022/09/26 13:39:51;;;;;;;1.00;0.90;;;;;;;;;;5070563;28;24402;-48
2022/09/26 13:42:21;;;;;;;1.20;0.70;;;;;;;;;;5062883;28;24960;-46
2022/09/26 13:45:05;;;;;;;1.20;0.70;;;;;;;;;;5050390;28;24457;-47
2022/09/26 13:47:37;;;;;;;0.80;0.80;;;;;;;;;;5049991;28;24411;-47
2022/09/26 13:50:17;;;;;;;1.08;0.73;;;;;;;;;;5050648;28;24442;-47
2022/09/26 13:52:51;;;;;;;0.80;0.80;;;;;;;;;;5050224;28;24402;-47
2022/09/26 13:55:18;;;;;;;1.40;1.30;;;;;;;;;;5050161;28;25000;-46
2022/09/26 13:57:44;;;;;;;0.90;0.90;;;;;;;;;;5063394;28;24928;-47
2022/09/26 14:00:22;;;;;;;0.80;0.80;;;;;;;;;;5067989;28;24422;-48
2022/09/26 14:03:14;;;;;;;0.90;0.68;;;;;;;;;;5068159;28;24566;-47
2022/09/26 14:05:45;;;;;;;0.90;0.60;;;;;;;;;;5067914;28;24522;-48
2022/09/26 14:11:32;;;;;;;0.80;0.80;;;;;;;;;;5069853;28;24409;-47
2022/09/26 14:14:20;;;;;;;0.73;0.73;;;;;;;;;;5067748;28;24454;-48
2022/09/26 14:16:46;;;;;;;0.80;0.80;;;;;;;;;;5069624;28;24399;-48
2022/09/26 14:19:14;;;;;;;1.20;0.80;;;;;;;;;;5069689;28;24520;-48
2022/09/26 14:21:39;;;;;;;0.70;0.70;;;;;;;;;;5069726;28;24406;-48
2022/09/26 14:24:20;;;;;;;1.40;0.80;;;;;;;;;;5067092;28;24821;-46
2022/09/26 14:27:02;;;;;;;0.60;0.60;;;;;;;;;;5069459;28;24485;-46
2022/09/26 14:29:28;;;;;;;0.70;0.70;;;;;;;;;;5069062;28;24800;-47
2022/09/26 14:32:09;;;;;;;0.70;0.70;;;;;;;;;;5069675;28;24403;-47
2022/09/26 14:34:40;;;;;;;0.80;0.80;;;;;;;;;;5067211;28;24438;-47
2022/09/26 14:37:21;;;;;;;0.80;0.80;;;;;;;;;;5067685;28;24990;-46
2022/09/26 14:39:49;;;;;;;0.80;0.80;;;;;;;;;;5069372;28;24403;-49
2022/09/26 14:42:17;;;;;;;1.80;0.80;;;;;;;;;;5068750;28;24426;-47
2022/09/26 14:44:49;;;;;;;1.08;0.98;;;;;;;;;;5069185;28;24390;-47
2022/09/26 14:47:15;;;;;;;0.93;0.93;;;;;;;;;;5055097;28;24423;-46
2022/09/26 14:49:40;;;;;;;0.90;0.90;;;;;;;;;;5067470;28;24451;-47
2022/09/26 14:52:14;;;;;;;1.27;0.80;;;;;;;;;;5069108;28;24475;-46
2022/09/26 14:54:39;;;;;;;1.33;1.00;;;;;;;;;;5069113;28;24490;-46
2022/09/26 14:57:07;;;;;;;0.80;0.73;;;;;;;;;;5068502;28;24502;-47
2022/09/26 14:59:32;;;;;;;1.10;0.80;;;;;;;;;;5067405;28;24840;-47
2022/09/26 15:02:16;;;;;;;1.25;1.00;;;;;;;;;;5069004;28;24808;-47
2022/09/26 15:04:43;;;;;;;0.90;0.90;;;;;;;;;;5068844;28;24391;-47
2022/09/26 15:07:12;;;;;;;1.20;1.10;;;;;;;;;;5068708;28;24402;-46
2022/09/26 15:09:39;;;;;;;1.20;1.10;;;;;;;;;;5066664;28;24851;-47
2022/09/26 15:12:27;;;;;;;1.17;1.00;;;;;;;;;;5064753;28;24435;-47
2022/09/26 15:14:54;;;;;;;1.13;1.03;;;;;;;;;;5054124;28;24781;-47
2022/09/26 15:17:26;;;;;;;1.40;0.90;;;;;;;;;;5066879;28;24473;-48
2022/09/26 15:19:53;;;;;;;1.17;1.08;;;;;;;;;;5060819;28;24464;-47